sensor_id;sensor_type;location;lat;lon;timestamp;temperature;humidity
4578;DHT22;2301;47.354;8.528;2022-09-24T00:01:14;19.60;75.40
4578;DHT22;2301;47.354;8.528;2022-09-24T00:03:42;19.60;75.30
4578;DHT22;2301;47.354;8.528;2022-09-24T00:06:10;19.60;75.40
4578;DHT22;2301;47.354;8.528;2022-09-24T00:08:38;19.60;75.20
4578;DHT22;2301;47.354;8.528;2022-09-24T00:11:06;19.60;75.10
4578;DHT22;2301;47.354;8.528;2022-09-24T00:13:38;19.60;75.00
4578;DHT22;2301;47.354;8.528;2022-09-24T00:16:07;19.60;75.10
4578;DHT22;2301;47.354;8.528;2022-09-24T00:18:34;19.60;74.80
4578;DHT22;2301;47.354;8.528;2022-09-24T00:21:11;19.60;74.80
4578;DHT22;2301;47.354;8.528;2022-09-24T00:23:38;19.60;74.80
4578;DHT22;2301;47.354;8.528;2022-09-24T00:26:05;19.60;74.70
4578;DHT22;2301;47.354;8.528;2022-09-24T00:28:51;19.60;74.90
4578;DHT22;2301;47.354;8.528;2022-09-24T00:31:18;19.60;75.00
4578;DHT22;2301;47.354;8.528;2022-09-24T00:33:45;19.60;75.10
4578;DHT22;2301;47.354;8.528;2022-09-24T00:36:13;19.60;75.00
4578;DHT22;2301;47.354;8.528;2022-09-24T00:38:40;19.60;75.00
4578;DHT22;2301;47.354;8.528;2022-09-24T00:41:07;19.70;75.30
4578;DHT22;2301;47.354;8.528;2022-09-24T00:43:36;19.70;76.00
4578;DHT22;2301;47.354;8.528;2022-09-24T00:46:10;19.60;74.70
4578;DHT22;2301;47.354;8.528;2022-09-24T00:48:40;19.60;75.30
4578;DHT22;2301;47.354;8.528;2022-09-24T00:51:08;19.60;75.60
4578;DHT22;2301;47.354;8.528;2022-09-24T00:53:37;19.60;75.70
4578;DHT22;2301;47.354;8.528;2022-09-24T00:56:06;19.50;75.70
4578;DHT22;2301;47.354;8.528;2022-09-24T00:58:35;19.60;76.00
4578;DHT22;2301;47.354;8.528;2022-09-24T01:01:05;19.50;75.60
4578;DHT22;2301;47.354;8.528;2022-09-24T01:03:37;19.60;75.50
4578;DHT22;2301;47.354;8.528;2022-09-24T01:06:07;19.60;75.30
4578;DHT22;2301;47.354;8.528;2022-09-24T01:08:34;19.60;75.40
4578;DHT22;2301;47.354;8.528;2022-09-24T01:11:19;19.60;75.60
4578;DHT22;2301;47.354;8.528;2022-09-24T01:14:09;19.60;75.30
4578;DHT22;2301;47.354;8.528;2022-09-24T01:16:45;19.70;75.90
4578;DHT22;2301;47.354;8.528;2022-09-24T01:19:31;19.60;75.80
4578;DHT22;2301;47.354;8.528;2022-09-24T01:22:09;19.60;76.20
4578;DHT22;2301;47.354;8.528;2022-09-24T01:24:54;19.50;76.60
4578;DHT22;2301;47.354;8.528;2022-09-24T01:27:34;19.50;77.20
4578;DHT22;2301;47.354;8.528;2022-09-24T01:30:06;19.40;77.50
4578;DHT22;2301;47.354;8.528;2022-09-24T01:32:38;19.40;77.50
4578;DHT22;2301;47.354;8.528;2022-09-24T01:35:11;19.40;77.60
4578;DHT22;2301;47.354;8.528;2022-09-24T01:37:42;19.40;77.40
4578;DHT22;2301;47.354;8.528;2022-09-24T01:40:11;19.50;77.70
4578;DHT22;2301;47.354;8.528;2022-09-24T01:42:38;19.50;77.60
4578;DHT22;2301;47.354;8.528;2022-09-24T01:45:08;19.50;77.70
4578;DHT22;2301;47.354;8.528;2022-09-24T01:47:38;19.40;77.60
4578;DHT22;2301;47.354;8.528;2022-09-24T01:50:08;19.40;77.60
4578;DHT22;2301;47.354;8.528;2022-09-24T01:52:41;19.50;77.70
4578;DHT22;2301;47.354;8.528;2022-09-24T01:55:12;19.50;77.80
4578;DHT22;2301;47.354;8.528;2022-09-24T01:57:43;19.50;77.70
4578;DHT22;2301;47.354;8.528;2022-09-24T02:00:14;19.50;77.80
4578;DHT22;2301;47.354;8.528;2022-09-24T02:02:44;19.50;77.80
4578;DHT22;2301;47.354;8.528;2022-09-24T02:05:19;19.50;77.80
4578;DHT22;2301;47.354;8.528;2022-09-24T02:07:54;19.50;77.90
4578;DHT22;2301;47.354;8.528;2022-09-24T02:10:24;19.60;78.10
4578;DHT22;2301;47.354;8.528;2022-09-24T02:12:55;19.50;77.90
4578;DHT22;2301;47.354;8.528;2022-09-24T02:15:28;19.50;77.90
4578;DHT22;2301;47.354;8.528;2022-09-24T02:18:01;19.60;78.60
4578;DHT22;2301;47.354;8.528;2022-09-24T02:20:28;19.50;77.80
4578;DHT22;2301;47.354;8.528;2022-09-24T02:22:56;19.50;77.80
4578;DHT22;2301;47.354;8.528;2022-09-24T02:25:29;19.50;77.90
4578;DHT22;2301;47.354;8.528;2022-09-24T02:27:57;19.50;78.10
4578;DHT22;2301;47.354;8.528;2022-09-24T02:30:25;19.50;78.20
4578;DHT22;2301;47.354;8.528;2022-09-24T02:32:53;19.50;78.30
4578;DHT22;2301;47.354;8.528;2022-09-24T02:35:21;19.50;78.30
4578;DHT22;2301;47.354;8.528;2022-09-24T02:37:47;19.50;78.50
4578;DHT22;2301;47.354;8.528;2022-09-24T02:40:15;19.50;78.60
4578;DHT22;2301;47.354;8.528;2022-09-24T02:42:42;19.50;78.60
4578;DHT22;2301;47.354;8.528;2022-09-24T02:45:10;19.50;78.80
4578;DHT22;2301;47.354;8.528;2022-09-24T02:47:40;19.50;79.00
4578;DHT22;2301;47.354;8.528;2022-09-24T02:50:08;19.50;79.00
4578;DHT22;2301;47.354;8.528;2022-09-24T02:52:35;19.40;78.90
4578;DHT22;2301;47.354;8.528;2022-09-24T02:55:02;19.40;78.90
4578;DHT22;2301;47.354;8.528;2022-09-24T02:57:29;19.40;78.90
4578;DHT22;2301;47.354;8.528;2022-09-24T02:59:56;19.40;78.90
4578;DHT22;2301;47.354;8.528;2022-09-24T03:02:23;19.40;78.90
4578;DHT22;2301;47.354;8.528;2022-09-24T03:04:51;19.40;79.00
4578;DHT22;2301;47.354;8.528;2022-09-24T03:07:19;19.40;78.70
4578;DHT22;2301;47.354;8.528;2022-09-24T03:09:47;19.40;78.50
4578;DHT22;2301;47.354;8.528;2022-09-24T03:12:14;19.40;78.40
4578;DHT22;2301;47.354;8.528;2022-09-24T03:14:41;19.50;78.50
4578;DHT22;2301;47.354;8.528;2022-09-24T03:17:08;19.40;78.30
4578;DHT22;2301;47.354;8.528;2022-09-24T03:19:35;19.40;78.30
4578;DHT22;2301;47.354;8.528;2022-09-24T03:22:03;19.40;78.40
4578;DHT22;2301;47.354;8.528;2022-09-24T03:24:30;19.40;78.40
4578;DHT22;2301;47.354;8.528;2022-09-24T03:26:57;19.30;78.40
4578;DHT22;2301;47.354;8.528;2022-09-24T03:29:24;19.30;78.60
4578;DHT22;2301;47.354;8.528;2022-09-24T03:32:04;19.30;78.70
4578;DHT22;2301;47.354;8.528;2022-09-24T03:34:31;19.30;78.80
4578;DHT22;2301;47.354;8.528;2022-09-24T03:36:58;19.30;78.90
4578;DHT22;2301;47.354;8.528;2022-09-24T03:39:27;19.30;78.80
4578;DHT22;2301;47.354;8.528;2022-09-24T03:41:54;19.30;78.70
4578;DHT22;2301;47.354;8.528;2022-09-24T03:44:20;19.30;78.60
4578;DHT22;2301;47.354;8.528;2022-09-24T03:46:47;19.30;78.60
4578;DHT22;2301;47.354;8.528;2022-09-24T03:49:15;19.40;78.80
4578;DHT22;2301;47.354;8.528;2022-09-24T03:51:42;19.30;78.60
4578;DHT22;2301;47.354;8.528;2022-09-24T03:54:10;19.30;78.80
4578;DHT22;2301;47.354;8.528;2022-09-24T03:56:39;19.30;78.80
4578;DHT22;2301;47.354;8.528;2022-09-24T03:59:06;19.30;78.80
4578;DHT22;2301;47.354;8.528;2022-09-24T04:01:32;19.30;78.70
4578;DHT22;2301;47.354;8.528;2022-09-24T04:04:02;19.30;78.60
4578;DHT22;2301;47.354;8.528;2022-09-24T04:06:29;19.20;78.60
4578;DHT22;2301;47.354;8.528;2022-09-24T04:08:56;19.20;78.70
4578;DHT22;2301;47.354;8.528;2022-09-24T04:11:25;19.30;78.60
4578;DHT22;2301;47.354;8.528;2022-09-24T04:13:53;19.30;78.60
4578;DHT22;2301;47.354;8.528;2022-09-24T04:16:20;19.30;78.50
4578;DHT22;2301;47.354;8.528;2022-09-24T04:18:47;19.30;78.60
4578;DHT22;2301;47.354;8.528;2022-09-24T04:21:15;19.20;78.50
4578;DHT22;2301;47.354;8.528;2022-09-24T04:23:42;19.30;78.70
4578;DHT22;2301;47.354;8.528;2022-09-24T04:26:09;19.20;78.60
4578;DHT22;2301;47.354;8.528;2022-09-24T04:28:37;19.30;78.90
4578;DHT22;2301;47.354;8.528;2022-09-24T04:31:05;19.20;79.00
4578;DHT22;2301;47.354;8.528;2022-09-24T04:33:32;19.20;79.30
4578;DHT22;2301;47.354;8.528;2022-09-24T04:35:59;19.20;79.30
4578;DHT22;2301;47.354;8.528;2022-09-24T04:38:26;19.20;79.30
4578;DHT22;2301;47.354;8.528;2022-09-24T04:40:53;19.10;79.30
4578;DHT22;2301;47.354;8.528;2022-09-24T04:43:20;19.10;79.30
4578;DHT22;2301;47.354;8.528;2022-09-24T04:45:47;19.10;79.40
4578;DHT22;2301;47.354;8.528;2022-09-24T04:48:15;19.00;79.40
4578;DHT22;2301;47.354;8.528;2022-09-24T04:50:42;19.10;79.70
4578;DHT22;2301;47.354;8.528;2022-09-24T04:53:09;19.00;79.60
4578;DHT22;2301;47.354;8.528;2022-09-24T04:55:36;19.10;79.60
4578;DHT22;2301;47.354;8.528;2022-09-24T04:58:04;19.00;79.20
4578;DHT22;2301;47.354;8.528;2022-09-24T05:00:31;19.00;79.10
4578;DHT22;2301;47.354;8.528;2022-09-24T05:02:59;19.00;79.00
4578;DHT22;2301;47.354;8.528;2022-09-24T05:05:30;18.90;78.80
4578;DHT22;2301;47.354;8.528;2022-09-24T05:07:57;18.90;78.80
4578;DHT22;2301;47.354;8.528;2022-09-24T05:10:27;18.90;79.00
4578;DHT22;2301;47.354;8.528;2022-09-24T05:12:54;19.00;79.20
4578;DHT22;2301;47.354;8.528;2022-09-24T05:15:21;19.00;79.20
4578;DHT22;2301;47.354;8.528;2022-09-24T05:17:48;18.90;79.10
4578;DHT22;2301;47.354;8.528;2022-09-24T05:20:15;18.90;79.10
4578;DHT22;2301;47.354;8.528;2022-09-24T05:22:45;18.90;79.20
4578;DHT22;2301;47.354;8.528;2022-09-24T05:25:13;19.00;79.40
4578;DHT22;2301;47.354;8.528;2022-09-24T05:27:43;19.00;79.20
4578;DHT22;2301;47.354;8.528;2022-09-24T05:30:10;19.00;79.00
4578;DHT22;2301;47.354;8.528;2022-09-24T05:32:38;19.00;79.20
4578;DHT22;2301;47.354;8.528;2022-09-24T05:35:05;19.00;79.00
4578;DHT22;2301;47.354;8.528;2022-09-24T05:37:34;19.00;78.90
4578;DHT22;2301;47.354;8.528;2022-09-24T05:40:04;19.00;78.90
4578;DHT22;2301;47.354;8.528;2022-09-24T05:42:45;19.00;78.90
4578;DHT22;2301;47.354;8.528;2022-09-24T05:45:12;19.00;78.90
4578;DHT22;2301;47.354;8.528;2022-09-24T05:47:42;19.00;78.90
4578;DHT22;2301;47.354;8.528;2022-09-24T05:50:09;19.00;78.90
4578;DHT22;2301;47.354;8.528;2022-09-24T05:52:38;19.00;78.80
4578;DHT22;2301;47.354;8.528;2022-09-24T05:55:08;19.00;78.90
4578;DHT22;2301;47.354;8.528;2022-09-24T05:57:35;19.00;78.90
4578;DHT22;2301;47.354;8.528;2022-09-24T06:00:04;19.00;79.00
4578;DHT22;2301;47.354;8.528;2022-09-24T06:02:31;18.90;79.20
4578;DHT22;2301;47.354;8.528;2022-09-24T06:04:58;18.90;79.30
4578;DHT22;2301;47.354;8.528;2022-09-24T06:07:25;19.00;79.40
4578;DHT22;2301;47.354;8.528;2022-09-24T06:09:52;18.90;79.20
4578;DHT22;2301;47.354;8.528;2022-09-24T06:12:21;19.00;79.20
4578;DHT22;2301;47.354;8.528;2022-09-24T06:14:48;19.00;79.40
4578;DHT22;2301;47.354;8.528;2022-09-24T06:17:15;19.00;79.20
4578;DHT22;2301;47.354;8.528;2022-09-24T06:19:42;19.00;79.20
4578;DHT22;2301;47.354;8.528;2022-09-24T06:22:09;19.00;79.20
4578;DHT22;2301;47.354;8.528;2022-09-24T06:24:36;19.00;79.20
4578;DHT22;2301;47.354;8.528;2022-09-24T06:27:03;19.00;79.10
4578;DHT22;2301;47.354;8.528;2022-09-24T06:29:32;19.00;79.10
4578;DHT22;2301;47.354;8.528;2022-09-24T06:32:00;19.00;79.20
4578;DHT22;2301;47.354;8.528;2022-09-24T06:34:27;19.00;79.30
4578;DHT22;2301;47.354;8.528;2022-09-24T06:36:55;19.00;79.60
4578;DHT22;2301;47.354;8.528;2022-09-24T06:39:22;19.00;79.50
4578;DHT22;2301;47.354;8.528;2022-09-24T06:41:51;19.00;79.50
4578;DHT22;2301;47.354;8.528;2022-09-24T06:44:18;19.00;79.40
4578;DHT22;2301;47.354;8.528;2022-09-24T06:46:47;19.00;79.30
4578;DHT22;2301;47.354;8.528;2022-09-24T06:49:14;19.10;79.30
4578;DHT22;2301;47.354;8.528;2022-09-24T06:51:41;19.10;79.10
4578;DHT22;2301;47.354;8.528;2022-09-24T06:54:08;19.10;79.20
4578;DHT22;2301;47.354;8.528;2022-09-24T06:56:35;19.00;79.00
4578;DHT22;2301;47.354;8.528;2022-09-24T06:59:03;19.00;79.00
4578;DHT22;2301;47.354;8.528;2022-09-24T07:01:31;19.00;79.90
4578;DHT22;2301;47.354;8.528;2022-09-24T07:04:00;18.90;79.10
4578;DHT22;2301;47.354;8.528;2022-09-24T07:06:27;18.90;79.20
4578;DHT22;2301;47.354;8.528;2022-09-24T07:09:14;19.00;79.30
4578;DHT22;2301;47.354;8.528;2022-09-24T07:11:41;19.00;79.30
4578;DHT22;2301;47.354;8.528;2022-09-24T07:14:11;19.00;79.40
4578;DHT22;2301;47.354;8.528;2022-09-24T07:16:38;19.00;79.20
4578;DHT22;2301;47.354;8.528;2022-09-24T07:19:06;19.00;79.20
4578;DHT22;2301;47.354;8.528;2022-09-24T07:21:33;18.90;79.00
4578;DHT22;2301;47.354;8.528;2022-09-24T07:24:00;19.00;79.20
4578;DHT22;2301;47.354;8.528;2022-09-24T07:26:27;18.90;79.20
4578;DHT22;2301;47.354;8.528;2022-09-24T07:28:54;18.90;79.20
4578;DHT22;2301;47.354;8.528;2022-09-24T07:31:21;19.00;79.40
4578;DHT22;2301;47.354;8.528;2022-09-24T07:33:48;19.00;79.40
4578;DHT22;2301;47.354;8.528;2022-09-24T07:36:17;19.00;79.40
4578;DHT22;2301;47.354;8.528;2022-09-24T07:38:44;19.00;79.70
4578;DHT22;2301;47.354;8.528;2022-09-24T07:41:11;19.00;79.60
4578;DHT22;2301;47.354;8.528;2022-09-24T07:43:38;19.00;79.70
4578;DHT22;2301;47.354;8.528;2022-09-24T07:46:05;19.10;78.90
4578;DHT22;2301;47.354;8.528;2022-09-24T07:48:32;19.10;78.60
4578;DHT22;2301;47.354;8.528;2022-09-24T07:50:59;19.00;78.70
4578;DHT22;2301;47.354;8.528;2022-09-24T07:53:27;19.10;78.90
4578;DHT22;2301;47.354;8.528;2022-09-24T07:55:58;19.10;79.10
4578;DHT22;2301;47.354;8.528;2022-09-24T07:58:26;19.10;79.10
4578;DHT22;2301;47.354;8.528;2022-09-24T08:00:55;19.20;79.40
4578;DHT22;2301;47.354;8.528;2022-09-24T08:03:22;19.30;79.50
4578;DHT22;2301;47.354;8.528;2022-09-24T08:05:50;19.30;79.60
4578;DHT22;2301;47.354;8.528;2022-09-24T08:08:21;19.10;79.70
4578;DHT22;2301;47.354;8.528;2022-09-24T08:10:50;19.00;80.10
4578;DHT22;2301;47.354;8.528;2022-09-24T08:13:17;18.90;80.70
4578;DHT22;2301;47.354;8.528;2022-09-24T08:15:44;18.80;81.10
4578;DHT22;2301;47.354;8.528;2022-09-24T08:18:11;18.70;81.80
4578;DHT22;2301;47.354;8.528;2022-09-24T08:20:38;18.60;82.10
4578;DHT22;2301;47.354;8.528;2022-09-24T08:23:07;18.50;82.10
4578;DHT22;2301;47.354;8.528;2022-09-24T08:25:35;18.50;82.60
4578;DHT22;2301;47.354;8.528;2022-09-24T08:28:04;18.40;82.60
4578;DHT22;2301;47.354;8.528;2022-09-24T08:30:33;18.30;83.00
4578;DHT22;2301;47.354;8.528;2022-09-24T08:33:00;18.30;83.50
4578;DHT22;2301;47.354;8.528;2022-09-24T08:35:29;18.30;84.10
4578;DHT22;2301;47.354;8.528;2022-09-24T08:37:56;18.20;84.50
4578;DHT22;2301;47.354;8.528;2022-09-24T08:40:28;18.20;84.10
4578;DHT22;2301;47.354;8.528;2022-09-24T08:43:04;18.20;83.80
4578;DHT22;2301;47.354;8.528;2022-09-24T08:45:38;18.10;83.40
4578;DHT22;2301;47.354;8.528;2022-09-24T08:48:24;18.10;83.60
4578;DHT22;2301;47.354;8.528;2022-09-24T08:50:57;18.00;83.80
4578;DHT22;2301;47.354;8.528;2022-09-24T08:53:30;18.00;84.30
4578;DHT22;2301;47.354;8.528;2022-09-24T08:55:59;18.00;84.00
4578;DHT22;2301;47.354;8.528;2022-09-24T08:58:32;18.00;84.00
4578;DHT22;2301;47.354;8.528;2022-09-24T09:01:06;18.00;84.30
4578;DHT22;2301;47.354;8.528;2022-09-24T09:03:41;17.90;84.60
4578;DHT22;2301;47.354;8.528;2022-09-24T09:06:21;17.90;85.10
4578;DHT22;2301;47.354;8.528;2022-09-24T09:08:58;17.90;85.50
4578;DHT22;2301;47.354;8.528;2022-09-24T09:11:30;17.90;85.30
4578;DHT22;2301;47.354;8.528;2022-09-24T09:14:02;17.90;85.30
4578;DHT22;2301;47.354;8.528;2022-09-24T09:16:35;17.90;85.50
4578;DHT22;2301;47.354;8.528;2022-09-24T09:19:10;18.00;86.00
4578;DHT22;2301;47.354;8.528;2022-09-24T09:21:40;18.00;86.00
4578;DHT22;2301;47.354;8.528;2022-09-24T09:24:14;18.00;86.00
4578;DHT22;2301;47.354;8.528;2022-09-24T09:26:43;17.90;86.00
4578;DHT22;2301;47.354;8.528;2022-09-24T09:29:13;17.90;86.00
4578;DHT22;2301;47.354;8.528;2022-09-24T09:31:48;17.90;85.90
4578;DHT22;2301;47.354;8.528;2022-09-24T09:34:34;17.90;85.80
4578;DHT22;2301;47.354;8.528;2022-09-24T09:37:16;17.80;85.90
4578;DHT22;2301;47.354;8.528;2022-09-24T09:39:50;17.80;86.10
4578;DHT22;2301;47.354;8.528;2022-09-24T09:42:29;17.80;86.00
4578;DHT22;2301;47.354;8.528;2022-09-24T09:44:59;17.80;85.80
4578;DHT22;2301;47.354;8.528;2022-09-24T09:47:35;17.80;86.40
4578;DHT22;2301;47.354;8.528;2022-09-24T09:50:09;17.80;86.60
4578;DHT22;2301;47.354;8.528;2022-09-24T09:52:39;17.80;86.70
4578;DHT22;2301;47.354;8.528;2022-09-24T09:55:07;17.70;86.80
4578;DHT22;2301;47.354;8.528;2022-09-24T09:57:36;17.70;87.10
4578;DHT22;2301;47.354;8.528;2022-09-24T10:00:23;17.80;87.60
4578;DHT22;2301;47.354;8.528;2022-09-24T10:02:51;17.80;88.30
4578;DHT22;2301;47.354;8.528;2022-09-24T10:05:20;17.80;88.60
4578;DHT22;2301;47.354;8.528;2022-09-24T10:07:47;17.80;88.40
4578;DHT22;2301;47.354;8.528;2022-09-24T10:10:18;17.90;88.60
4578;DHT22;2301;47.354;8.528;2022-09-24T10:12:45;17.90;88.30
4578;DHT22;2301;47.354;8.528;2022-09-24T10:15:18;17.90;88.10
4578;DHT22;2301;47.354;8.528;2022-09-24T10:17:47;17.90;88.50
4578;DHT22;2301;47.354;8.528;2022-09-24T10:20:18;17.90;88.30
4578;DHT22;2301;47.354;8.528;2022-09-24T10:22:50;17.90;88.40
4578;DHT22;2301;47.354;8.528;2022-09-24T10:25:20;17.90;88.30
4578;DHT22;2301;47.354;8.528;2022-09-24T10:27:51;17.90;87.60
4578;DHT22;2301;47.354;8.528;2022-09-24T10:30:20;17.90;87.70
4578;DHT22;2301;47.354;8.528;2022-09-24T10:33:00;17.90;88.00
4578;DHT22;2301;47.354;8.528;2022-09-24T10:35:29;17.90;88.70
4578;DHT22;2301;47.354;8.528;2022-09-24T10:37:58;17.80;88.90
4578;DHT22;2301;47.354;8.528;2022-09-24T10:40:27;17.80;89.10
4578;DHT22;2301;47.354;8.528;2022-09-24T10:42:57;17.80;89.20
4578;DHT22;2301;47.354;8.528;2022-09-24T10:45:46;17.80;89.20
4578;DHT22;2301;47.354;8.528;2022-09-24T10:48:17;17.90;89.50
4578;DHT22;2301;47.354;8.528;2022-09-24T10:50:56;17.90;89.50
4578;DHT22;2301;47.354;8.528;2022-09-24T10:53:34;17.90;89.10
4578;DHT22;2301;47.354;8.528;2022-09-24T10:56:14;17.90;88.60
4578;DHT22;2301;47.354;8.528;2022-09-24T11:01:48;17.80;87.70
4578;DHT22;2301;47.354;8.528;2022-09-24T11:04:21;17.80;87.80
4578;DHT22;2301;47.354;8.528;2022-09-24T11:07:16;17.80;87.90
4578;DHT22;2301;47.354;8.528;2022-09-24T11:09:53;17.80;88.10
4578;DHT22;2301;47.354;8.528;2022-09-24T11:12:28;17.80;88.50
4578;DHT22;2301;47.354;8.528;2022-09-24T11:15:08;17.80;88.90
4578;DHT22;2301;47.354;8.528;2022-09-24T11:17:50;17.80;89.10
4578;DHT22;2301;47.354;8.528;2022-09-24T11:20:28;17.80;89.60
4578;DHT22;2301;47.354;8.528;2022-09-24T11:25:52;17.90;88.90
4578;DHT22;2301;47.354;8.528;2022-09-24T11:28:39;17.90;88.00
4578;DHT22;2301;47.354;8.528;2022-09-24T11:31:15;17.90;88.10
4578;DHT22;2301;47.354;8.528;2022-09-24T11:33:58;17.90;88.10
4578;DHT22;2301;47.354;8.528;2022-09-24T11:36:42;17.90;88.10
4578;DHT22;2301;47.354;8.528;2022-09-24T11:39:29;17.90;88.10
4578;DHT22;2301;47.354;8.528;2022-09-24T11:42:07;18.00;88.20
4578;DHT22;2301;47.354;8.528;2022-09-24T11:45:03;18.00;88.70
4578;DHT22;2301;47.354;8.528;2022-09-24T11:47:51;18.00;88.60
4578;DHT22;2301;47.354;8.528;2022-09-24T11:50:32;18.10;87.60
4578;DHT22;2301;47.354;8.528;2022-09-24T11:53:04;18.10;86.50
4578;DHT22;2301;47.354;8.528;2022-09-24T11:55:35;18.10;86.20
4578;DHT22;2301;47.354;8.528;2022-09-24T11:58:10;18.10;86.30
4578;DHT22;2301;47.354;8.528;2022-09-24T12:00:42;18.20;86.60
4578;DHT22;2301;47.354;8.528;2022-09-24T12:03:15;18.20;86.80
4578;DHT22;2301;47.354;8.528;2022-09-24T12:05:47;18.20;85.90
4578;DHT22;2301;47.354;8.528;2022-09-24T12:08:19;18.30;86.10
4578;DHT22;2301;47.354;8.528;2022-09-24T12:10:54;18.30;85.90
4578;DHT22;2301;47.354;8.528;2022-09-24T12:13:25;18.30;85.00
4578;DHT22;2301;47.354;8.528;2022-09-24T12:15:55;18.30;84.70
4578;DHT22;2301;47.354;8.528;2022-09-24T12:18:25;18.30;83.90
4578;DHT22;2301;47.354;8.528;2022-09-24T12:20:58;18.30;83.30
4578;DHT22;2301;47.354;8.528;2022-09-24T12:23:28;18.30;83.70
4578;DHT22;2301;47.354;8.528;2022-09-24T12:25:57;18.30;83.90
4578;DHT22;2301;47.354;8.528;2022-09-24T12:28:28;18.20;83.40
4578;DHT22;2301;47.354;8.528;2022-09-24T12:31:21;18.30;83.70
4578;DHT22;2301;47.354;8.528;2022-09-24T12:34:16;18.30;84.20
4578;DHT22;2301;47.354;8.528;2022-09-24T12:36:52;18.20;84.20
4578;DHT22;2301;47.354;8.528;2022-09-24T12:39:24;18.20;84.10
4578;DHT22;2301;47.354;8.528;2022-09-24T12:41:58;18.20;84.50
4578;DHT22;2301;47.354;8.528;2022-09-24T12:44:31;18.20;84.80
4578;DHT22;2301;47.354;8.528;2022-09-24T12:47:00;18.20;85.00
4578;DHT22;2301;47.354;8.528;2022-09-24T12:49:31;18.20;85.50
4578;DHT22;2301;47.354;8.528;2022-09-24T12:52:03;18.20;85.70
4578;DHT22;2301;47.354;8.528;2022-09-24T12:54:32;18.30;85.50
4578;DHT22;2301;47.354;8.528;2022-09-24T12:57:07;18.30;85.40
4578;DHT22;2301;47.354;8.528;2022-09-24T12:59:46;18.30;85.20
4578;DHT22;2301;47.354;8.528;2022-09-24T13:02:15;18.30;85.20
4578;DHT22;2301;47.354;8.528;2022-09-24T13:04:50;18.30;84.60
4578;DHT22;2301;47.354;8.528;2022-09-24T13:07:32;18.30;85.00
4578;DHT22;2301;47.354;8.528;2022-09-24T13:10:21;18.30;85.20
4578;DHT22;2301;47.354;8.528;2022-09-24T13:12:49;18.30;84.70
4578;DHT22;2301;47.354;8.528;2022-09-24T13:15:25;18.30;84.40
4578;DHT22;2301;47.354;8.528;2022-09-24T13:18:02;18.30;85.20
4578;DHT22;2301;47.354;8.528;2022-09-24T13:20:30;18.30;84.90
4578;DHT22;2301;47.354;8.528;2022-09-24T13:23:12;18.30;84.70
4578;DHT22;2301;47.354;8.528;2022-09-24T13:25:42;18.40;84.90
4578;DHT22;2301;47.354;8.528;2022-09-24T13:28:21;18.40;85.10
4578;DHT22;2301;47.354;8.528;2022-09-24T13:30:52;18.40;85.10
4578;DHT22;2301;47.354;8.528;2022-09-24T13:33:23;18.50;84.80
4578;DHT22;2301;47.354;8.528;2022-09-24T13:36:05;18.50;83.90
4578;DHT22;2301;47.354;8.528;2022-09-24T13:38:37;18.50;83.60
4578;DHT22;2301;47.354;8.528;2022-09-24T13:41:21;18.40;83.50
4578;DHT22;2301;47.354;8.528;2022-09-24T13:43:53;18.40;83.60
4578;DHT22;2301;47.354;8.528;2022-09-24T13:46:23;18.40;84.40
4578;DHT22;2301;47.354;8.528;2022-09-24T13:48:52;18.40;84.60
4578;DHT22;2301;47.354;8.528;2022-09-24T13:51:23;18.50;84.70
4578;DHT22;2301;47.354;8.528;2022-09-24T13:53:57;18.50;84.30
4578;DHT22;2301;47.354;8.528;2022-09-24T13:56:28;18.50;84.40
4578;DHT22;2301;47.354;8.528;2022-09-24T13:59:02;18.50;84.60
4578;DHT22;2301;47.354;8.528;2022-09-24T14:01:35;18.50;84.50
4578;DHT22;2301;47.354;8.528;2022-09-24T14:04:06;18.50;84.60
4578;DHT22;2301;47.354;8.528;2022-09-24T14:06:41;18.50;84.40
4578;DHT22;2301;47.354;8.528;2022-09-24T14:09:25;18.50;84.40
4578;DHT22;2301;47.354;8.528;2022-09-24T14:11:53;18.40;84.90
4578;DHT22;2301;47.354;8.528;2022-09-24T14:14:22;18.40;85.00
4578;DHT22;2301;47.354;8.528;2022-09-24T14:16:51;18.40;85.40
4578;DHT22;2301;47.354;8.528;2022-09-24T14:19:20;18.40;85.80
4578;DHT22;2301;47.354;8.528;2022-09-24T14:21:48;18.40;85.20
4578;DHT22;2301;47.354;8.528;2022-09-24T14:24:22;18.40;85.50
4578;DHT22;2301;47.354;8.528;2022-09-24T14:26:53;18.40;86.10
4578;DHT22;2301;47.354;8.528;2022-09-24T14:29:23;18.50;86.60
4578;DHT22;2301;47.354;8.528;2022-09-24T14:31:53;18.60;86.10
4578;DHT22;2301;47.354;8.528;2022-09-24T14:34:26;18.60;86.20
4578;DHT22;2301;47.354;8.528;2022-09-24T14:36:55;18.60;86.30
4578;DHT22;2301;47.354;8.528;2022-09-24T14:39:26;18.70;86.10
4578;DHT22;2301;47.354;8.528;2022-09-24T14:41:56;18.60;85.30
4578;DHT22;2301;47.354;8.528;2022-09-24T14:44:25;18.60;85.50
4578;DHT22;2301;47.354;8.528;2022-09-24T14:46:55;18.60;85.60
4578;DHT22;2301;47.354;8.528;2022-09-24T14:49:25;18.70;85.50
4578;DHT22;2301;47.354;8.528;2022-09-24T14:51:54;18.60;86.00
4578;DHT22;2301;47.354;8.528;2022-09-24T14:54:27;18.70;86.30
4578;DHT22;2301;47.354;8.528;2022-09-24T14:57:07;18.70;86.50
4578;DHT22;2301;47.354;8.528;2022-09-24T14:59:36;18.70;87.00
4578;DHT22;2301;47.354;8.528;2022-09-24T15:02:13;18.80;87.20
4578;DHT22;2301;47.354;8.528;2022-09-24T15:04:44;18.80;87.30
4578;DHT22;2301;47.354;8.528;2022-09-24T15:07:15;18.80;87.10
4578;DHT22;2301;47.354;8.528;2022-09-24T15:09:48;18.80;86.60
4578;DHT22;2301;47.354;8.528;2022-09-24T15:12:18;18.80;86.30
4578;DHT22;2301;47.354;8.528;2022-09-24T15:14:56;18.70;86.10
4578;DHT22;2301;47.354;8.528;2022-09-24T15:17:28;18.70;85.90
4578;DHT22;2301;47.354;8.528;2022-09-24T15:19:55;18.70;86.00
4578;DHT22;2301;47.354;8.528;2022-09-24T15:22:22;18.60;86.00
4578;DHT22;2301;47.354;8.528;2022-09-24T15:24:52;18.60;86.00
4578;DHT22;2301;47.354;8.528;2022-09-24T15:27:21;18.60;86.20
4578;DHT22;2301;47.354;8.528;2022-09-24T15:29:51;18.60;86.00
4578;DHT22;2301;47.354;8.528;2022-09-24T15:32:19;18.60;85.80
4578;DHT22;2301;47.354;8.528;2022-09-24T15:34:47;18.70;86.30
4578;DHT22;2301;47.354;8.528;2022-09-24T15:37:17;18.60;85.80
4578;DHT22;2301;47.354;8.528;2022-09-24T15:39:44;18.60;85.90
4578;DHT22;2301;47.354;8.528;2022-09-24T15:42:16;18.60;85.50
4578;DHT22;2301;47.354;8.528;2022-09-24T15:44:44;18.60;86.40
4578;DHT22;2301;47.354;8.528;2022-09-24T15:47:12;18.70;85.30
4578;DHT22;2301;47.354;8.528;2022-09-24T15:49:40;18.60;84.90
4578;DHT22;2301;47.354;8.528;2022-09-24T15:52:10;18.60;84.70
4578;DHT22;2301;47.354;8.528;2022-09-24T15:54:39;18.60;84.70
4578;DHT22;2301;47.354;8.528;2022-09-24T15:57:06;18.50;85.30
4578;DHT22;2301;47.354;8.528;2022-09-24T15:59:34;18.40;85.50
4578;DHT22;2301;47.354;8.528;2022-09-24T16:02:02;18.40;85.90
4578;DHT22;2301;47.354;8.528;2022-09-24T16:04:32;18.40;86.00
4578;DHT22;2301;47.354;8.528;2022-09-24T16:06:59;18.30;86.10
4578;DHT22;2301;47.354;8.528;2022-09-24T16:09:26;18.30;86.10
4578;DHT22;2301;47.354;8.528;2022-09-24T16:11:53;18.30;86.30
4578;DHT22;2301;47.354;8.528;2022-09-24T16:14:22;18.20;86.40
4578;DHT22;2301;47.354;8.528;2022-09-24T16:16:50;18.20;86.60
4578;DHT22;2301;47.354;8.528;2022-09-24T16:19:17;18.20;86.70
4578;DHT22;2301;47.354;8.528;2022-09-24T16:21:44;18.20;86.90
4578;DHT22;2301;47.354;8.528;2022-09-24T16:24:11;18.10;86.70
4578;DHT22;2301;47.354;8.528;2022-09-24T16:26:37;18.10;86.80
4578;DHT22;2301;47.354;8.528;2022-09-24T16:29:05;18.10;86.90
4578;DHT22;2301;47.354;8.528;2022-09-24T16:31:34;18.10;86.70